createdAt,value
2023-02-24T00:02:20.339Z,4.51
2023-02-24T00:04:52.041Z,4.56
2023-02-24T00:07:23.043Z,4.57
2023-02-24T00:09:52.548Z,4.58
2023-02-24T00:12:22.322Z,4.60
2023-02-24T00:14:51.750Z,4.63
2023-02-24T00:17:21.231Z,4.62
2023-02-24T00:19:50.758Z,4.67
2023-02-24T00:22:21.740Z,4.71
2023-02-24T00:24:51.276Z,4.73
2023-02-24T00:27:20.803Z,4.73
2023-02-24T00:29:50.256Z,4.74
2023-02-24T00:32:19.887Z,4.72
2023-02-24T00:34:51.154Z,4.74
2023-02-24T00:37:24.123Z,4.68
2023-02-24T00:39:58.750Z,4.67
2023-02-24T00:42:28.288Z,4.68
2023-02-24T00:44:57.891Z,4.57
2023-02-24T00:50:36.108Z,4.44
2023-02-24T00:53:05.539Z,4.40
2023-02-24T00:55:37.110Z,4.38
2023-02-24T00:58:07.549Z,4.35
2023-02-24T01:00:38.424Z,4.38
2023-02-24T01:03:07.626Z,4.37
2023-02-24T01:05:40.053Z,4.36
2023-02-24T01:08:09.370Z,4.33
2023-02-24T01:10:38.818Z,4.28
2023-02-24T01:13:07.390Z,4.28
2023-02-24T01:15:36.668Z,4.29
2023-02-24T01:18:06.233Z,4.29
2023-02-24T01:20:38.693Z,4.28
2023-02-24T01:23:09.425Z,4.32
2023-02-24T01:25:41.239Z,4.33
2023-02-24T01:28:11.908Z,4.33
2023-02-24T01:30:43.269Z,4.30
2023-02-24T01:33:14.844Z,4.25
2023-02-24T01:35:44.260Z,4.20
2023-02-24T01:38:15.421Z,4.16
2023-02-24T01:40:44.870Z,4.17
2023-02-24T01:43:15.457Z,4.19
2023-02-24T01:45:44.950Z,4.17
2023-02-24T01:48:17.458Z,4.15
2023-02-24T01:50:48.393Z,4.14
2023-02-24T01:53:19.852Z,4.16
2023-02-24T01:55:53.153Z,4.20
2023-02-24T01:58:28.273Z,4.24
2023-02-24T02:00:58.655Z,4.23
2023-02-24T02:03:32.899Z,4.18
2023-02-24T02:06:05.747Z,4.13
2023-02-24T02:08:38.028Z,4.16
2023-02-24T02:11:10.303Z,4.14
2023-02-24T02:13:44.369Z,4.15
2023-02-24T02:16:33.055Z,4.17
2023-02-24T02:19:31.632Z,4.19
2023-02-24T02:22:28.135Z,4.21
2023-02-24T02:25:03.386Z,4.17
2023-02-24T02:28:16.596Z,4.17
2023-02-24T02:31:26.132Z,4.18
2023-02-24T02:34:33.939Z,4.14
2023-02-24T02:37:14.887Z,4.14
2023-02-24T02:39:53.372Z,4.15
2023-02-24T02:42:31.797Z,4.11
2023-02-24T02:45:10.077Z,4.09
2023-02-24T02:47:45.951Z,3.99
2023-02-24T02:50:23.510Z,3.98
2023-02-24T02:52:59.006Z,3.96
2023-02-24T02:55:35.057Z,3.92
2023-02-24T02:58:09.351Z,3.92
2023-02-24T03:00:50.348Z,3.89
2023-02-24T03:03:21.480Z,3.85
2023-02-24T03:05:58.075Z,3.83
2023-02-24T03:08:34.509Z,3.80
2023-02-24T03:11:06.194Z,3.76
2023-02-24T03:13:41.304Z,3.76
2023-02-24T03:16:13.372Z,3.74
2023-02-24T03:18:53.252Z,3.76
2023-02-24T03:21:33.137Z,3.75
2023-02-24T03:24:06.686Z,3.71
2023-02-24T03:26:43.978Z,3.75
2023-02-24T03:29:24.147Z,3.78
2023-02-24T03:32:00.902Z,3.79
2023-02-24T03:34:37.761Z,3.84
2023-02-24T03:37:08.596Z,3.88
2023-02-24T03:39:38.271Z,3.86
2023-02-24T03:42:14.590Z,3.86
2023-02-24T03:44:45.717Z,3.86
2023-02-24T03:47:16.727Z,3.81
2023-02-24T03:51:37.308Z,3.80
2023-02-24T03:54:23.956Z,3.78
2023-02-24T03:57:12.669Z,3.76
2023-02-24T03:59:56.329Z,3.72
2023-02-24T04:02:31.876Z,3.67
2023-02-24T04:05:13.926Z,3.70
2023-02-24T04:07:57.909Z,3.66
2023-02-24T04:10:35.452Z,3.67
2023-02-24T04:13:14.648Z,3.69
2023-02-24T04:15:46.787Z,3.66
2023-02-24T04:18:20.042Z,3.64
2023-02-24T04:20:53.571Z,3.63
2023-02-24T04:23:29.873Z,3.62
2023-02-24T04:25:59.484Z,3.64
2023-02-24T04:28:31.308Z,3.63
2023-02-24T04:31:06.332Z,3.63
2023-02-24T04:33:36.250Z,3.60
2023-02-24T04:36:09.190Z,3.55
2023-02-24T04:38:40.171Z,3.53
2023-02-24T04:41:09.707Z,3.57
2023-02-24T04:43:39.071Z,3.55
2023-02-24T04:46:08.581Z,3.55
2023-02-24T04:48:39.302Z,3.56
2023-02-24T04:51:08.773Z,3.57
2023-02-24T04:53:39.806Z,3.55
2023-02-24T04:56:10.124Z,3.55
2023-02-24T04:58:41.807Z,3.51
2023-02-24T05:01:12.779Z,3.48
2023-02-24T05:03:43.622Z,3.43
2023-02-24T05:06:18.588Z,3.38
2023-02-24T05:08:52.610Z,3.36
2023-02-24T05:11:22.234Z,3.39
2023-02-24T05:13:51.827Z,3.43
2023-02-24T05:16:22.539Z,3.44
2023-02-24T05:19:12.034Z,3.38
2023-02-24T05:21:41.983Z,3.38
2023-02-24T05:24:12.877Z,3.33
2023-02-24T05:26:43.039Z,3.30
2023-02-24T05:29:14.168Z,3.33
2023-02-24T05:31:44.247Z,3.37
2023-02-24T05:34:17.434Z,3.38
2023-02-24T05:36:47.114Z,3.39
2023-02-24T05:39:19.775Z,3.41
2023-02-24T05:41:54.947Z,3.41
2023-02-24T05:44:27.397Z,3.46
2023-02-24T05:46:59.569Z,3.46
2023-02-24T05:49:34.091Z,3.45
2023-02-24T05:52:08.149Z,3.43
2023-02-24T05:54:41.612Z,3.46
2023-02-24T05:57:13.822Z,3.48
2023-02-24T05:59:44.954Z,3.49
2023-02-24T06:02:16.462Z,3.49
2023-02-24T06:04:51.562Z,3.51
2023-02-24T06:07:25.221Z,3.57
2023-02-24T06:10:00.388Z,3.62
2023-02-24T06:12:33.988Z,3.63
2023-02-24T06:15:07.994Z,3.61
2023-02-24T06:17:37.969Z,3.62
2023-02-24T06:20:16.107Z,3.62
2023-02-24T06:22:45.846Z,3.63
2023-02-24T06:25:18.780Z,3.63
2023-02-24T06:27:53.390Z,3.61
2023-02-24T06:30:24.901Z,3.64
2023-02-24T06:32:54.793Z,3.66
2023-02-24T06:35:24.274Z,3.63
2023-02-24T06:37:56.007Z,3.62
2023-02-24T06:40:27.162Z,3.64
2023-02-24T06:42:56.600Z,3.66
2023-02-24T06:45:27.113Z,3.68
2023-02-24T06:47:56.696Z,3.72
2023-02-24T06:51:39.310Z,3.82
2023-02-24T06:54:08.798Z,3.86
2023-02-24T06:56:39.320Z,3.90
2023-02-24T06:59:12.112Z,3.92
2023-02-24T07:01:45.558Z,3.96
2023-02-24T07:04:21.247Z,4.01
2023-02-24T07:06:55.851Z,4.00
2023-02-24T07:09:28.146Z,4.05
2023-02-24T07:11:57.800Z,4.07
2023-02-24T07:14:30.799Z,4.11
2023-02-24T07:17:01.224Z,4.15
2023-02-24T07:19:33.406Z,4.18
2023-02-24T07:22:05.614Z,4.19
2023-02-24T07:24:37.418Z,4.23
2023-02-24T07:27:11.884Z,4.22
2023-02-24T07:29:41.944Z,4.19
2023-02-24T07:32:13.002Z,4.18
2023-02-24T07:34:42.509Z,4.18
2023-02-24T07:37:14.066Z,4.12
2023-02-24T07:39:43.753Z,4.13
2023-02-24T07:42:14.517Z,4.18
2023-02-24T07:44:47.016Z,4.22
2023-02-24T07:47:16.545Z,4.27
2023-02-24T07:49:46.027Z,4.30
2023-02-24T07:52:17.827Z,4.27
2023-02-24T07:54:47.324Z,4.29
2023-02-24T07:57:19.140Z,4.30
2023-02-24T07:59:48.595Z,4.30
2023-02-24T08:02:18.574Z,4.24
2023-02-24T08:04:51.804Z,4.19
2023-02-24T08:07:25.712Z,4.14
2023-02-24T08:10:13.008Z,4.11
2023-02-24T08:12:44.223Z,4.13
2023-02-24T08:15:24.432Z,4.15
2023-02-24T08:17:59.792Z,4.14
2023-02-24T08:20:36.513Z,4.10
2023-02-24T08:23:09.028Z,4.10
2023-02-24T08:25:38.529Z,4.12
2023-02-24T08:28:11.988Z,4.18
2023-02-24T08:30:46.716Z,4.18
2023-02-24T08:33:22.308Z,4.24
2023-02-24T08:36:01.731Z,4.35
2023-02-24T08:38:52.236Z,4.46
2023-02-24T08:41:43.669Z,4.52
2023-02-24T08:44:19.087Z,4.38
2023-02-24T08:46:50.552Z,4.37
2023-02-24T08:49:20.540Z,4.35
2023-02-24T08:51:53.135Z,4.36
2023-02-24T08:54:31.093Z,4.35
2023-02-24T08:57:08.405Z,4.41
2023-02-24T08:59:40.484Z,4.47
2023-02-24T09:02:24.599Z,4.61
2023-02-24T09:04:56.964Z,4.71
2023-02-24T09:07:29.849Z,4.78
2023-02-24T09:10:02.221Z,4.82
2023-02-24T09:12:33.056Z,4.88
2023-02-24T09:15:05.108Z,4.84
2023-02-24T09:17:51.185Z,4.96
2023-02-24T09:20:42.753Z,5.22
2023-02-24T09:23:20.367Z,5.42
2023-02-24T09:25:54.704Z,5.65
2023-02-24T09:28:26.507Z,6.03
2023-02-24T09:30:58.980Z,6.48
2023-02-24T09:33:39.194Z,6.82
2023-02-24T09:36:11.223Z,7.13
2023-02-24T09:38:59.367Z,7.23
2023-02-24T09:41:54.137Z,7.02
2023-02-24T09:44:33.535Z,6.67
2023-02-24T09:47:14.294Z,6.75
2023-02-24T09:51:42.597Z,6.88
2023-02-24T09:54:19.036Z,7.07
2023-02-24T09:57:08.590Z,7.18
2023-02-24T10:00:01.675Z,7.31
2023-02-24T10:02:45.310Z,7.51
2023-02-24T10:05:27.612Z,7.54
2023-02-24T10:08:00.787Z,7.42
2023-02-24T10:10:36.138Z,7.29
2023-02-24T10:13:17.307Z,7.18
2023-02-24T10:16:06.230Z,7.12
2023-02-24T10:18:45.113Z,7.14
2023-02-24T10:21:30.910Z,7.17
2023-02-24T10:24:14.619Z,7.22
2023-02-24T10:27:00.782Z,7.20
2023-02-24T10:30:01.324Z,7.09
2023-02-24T10:32:47.393Z,7.11
2023-02-24T10:35:19.342Z,7.14
2023-02-24T10:37:50.717Z,7.17
2023-02-24T10:40:33.932Z,7.15
2023-02-24T10:43:10.977Z,7.11
2023-02-24T10:45:45.660Z,6.97
2023-02-24T10:48:40.823Z,6.92
2023-02-24T10:51:20.502Z,7.01
2023-02-24T10:54:10.407Z,6.95
2023-02-24T10:56:55.462Z,7.00
2023-02-24T10:59:58.973Z,7.08
2023-02-24T11:02:33.060Z,7.13
2023-02-24T11:05:27.456Z,7.17
2023-02-24T11:08:36.914Z,7.23
2023-02-24T11:11:20.623Z,7.40
2023-02-24T11:14:26.219Z,7.68
2023-02-24T11:17:16.581Z,7.76
2023-02-24T11:19:50.774Z,7.89
2023-02-24T11:22:25.039Z,7.97
2023-02-24T11:24:55.651Z,8.00
2023-02-24T11:27:27.257Z,8.03
2023-02-24T11:30:17.210Z,8.11
2023-02-24T11:33:08.742Z,8.09
2023-02-24T11:35:47.911Z,7.94
2023-02-24T11:38:30.776Z,7.88
2023-02-24T11:41:11.809Z,7.88
2023-02-24T11:43:46.912Z,7.95
2023-02-24T11:46:24.280Z,8.11
2023-02-24T11:48:57.713Z,8.19
2023-02-24T11:51:33.069Z,8.43
2023-02-24T11:54:07.150Z,8.65
2023-02-24T11:56:40.199Z,8.63
2023-02-24T11:59:16.242Z,8.68
2023-02-24T12:01:53.996Z,8.64
2023-02-24T12:04:30.032Z,8.56
2023-02-24T12:07:07.389Z,8.52
2023-02-24T12:09:45.272Z,8.44
2023-02-24T12:12:21.609Z,8.54
2023-02-24T12:14:57.580Z,8.66
2023-02-24T12:17:36.861Z,8.67
2023-02-24T12:20:16.823Z,8.58
2023-02-24T12:22:54.390Z,8.56
2023-02-24T12:25:31.656Z,8.59
2023-02-24T12:28:18.849Z,8.64
2023-02-24T12:31:09.433Z,8.65
2023-02-24T12:33:55.855Z,8.67
2023-02-24T12:37:00.571Z,8.62
2023-02-24T12:39:39.196Z,8.60
2023-02-24T12:42:20.983Z,8.62
2023-02-24T12:45:02.811Z,8.64
2023-02-24T12:47:45.516Z,8.62
2023-02-24T12:51:47.656Z,8.56
2023-02-24T12:54:26.521Z,8.54
2023-02-24T12:57:06.697Z,8.61
2023-02-24T12:59:41.723Z,8.61
2023-02-24T13:02:23.780Z,8.61
2023-02-24T13:05:03.746Z,8.74
2023-02-24T13:07:54.268Z,8.85
2023-02-24T13:10:36.036Z,8.90
2023-02-24T13:13:15.805Z,9.06
2023-02-24T13:15:54.557Z,9.19
2023-02-24T13:18:29.409Z,9.29
2023-02-24T13:21:20.392Z,9.34
2023-02-24T13:24:01.243Z,9.28
2023-02-24T13:26:33.033Z,9.23
2023-02-24T13:29:05.811Z,9.15
2023-02-24T13:31:47.650Z,9.12
2023-02-24T13:34:43.250Z,9.05
2023-02-24T13:37:13.232Z,8.93
2023-02-24T13:39:44.431Z,8.85
2023-02-24T13:42:26.419Z,8.79
2023-02-24T13:45:03.892Z,8.73
2023-02-24T13:48:14.871Z,8.63
2023-02-24T13:51:08.609Z,8.47
2023-02-24T13:53:59.761Z,8.46
2023-02-24T13:56:41.441Z,8.46
2023-02-24T13:59:48.656Z,8.42
2023-02-24T14:02:21.693Z,8.37
2023-02-24T14:04:53.997Z,8.32
2023-02-24T14:07:26.399Z,8.27
2023-02-24T14:09:59.460Z,8.24
2023-02-24T14:12:33.131Z,8.19
2023-02-24T14:15:04.217Z,8.14
2023-02-24T14:17:37.412Z,8.13
2023-02-24T14:20:22.697Z,8.10
2023-02-24T14:22:54.919Z,8.08
2023-02-24T14:25:26.157Z,8.02
2023-02-24T14:27:59.102Z,7.96
2023-02-24T14:30:35.037Z,7.89
2023-02-24T14:33:07.145Z,7.86
2023-02-24T14:35:39.015Z,7.82
2023-02-24T14:38:08.655Z,7.78
2023-02-24T14:40:38.021Z,7.74
2023-02-24T14:43:17.198Z,7.66
2023-02-24T14:45:52.172Z,7.61
2023-02-24T14:48:28.066Z,7.57
2023-02-24T14:51:04.573Z,7.51
2023-02-24T14:53:37.016Z,7.50
2023-02-24T14:56:08.360Z,7.48
2023-02-24T14:58:46.377Z,7.37
2023-02-24T15:01:24.255Z,7.18
2023-02-24T15:03:57.493Z,7.01
2023-02-24T15:06:30.677Z,6.91
2023-02-24T15:09:04.041Z,6.87
2023-02-24T15:11:37.312Z,6.80
2023-02-24T15:14:21.557Z,6.76
2023-02-24T15:16:54.876Z,6.70
2023-02-24T15:19:32.976Z,6.68
2023-02-24T15:22:02.612Z,6.70
2023-02-24T15:24:35.040Z,6.69
2023-02-24T15:27:23.127Z,6.52
2023-02-24T15:30:08.104Z,6.27
2023-02-24T15:32:40.005Z,6.25
2023-02-24T15:35:24.606Z,6.20
2023-02-24T15:37:55.760Z,5.98
2023-02-24T15:40:27.528Z,5.65
2023-02-24T15:43:00.738Z,5.49
2023-02-24T15:45:34.989Z,5.48
2023-02-24T15:51:40.241Z,5.52
2023-02-24T15:54:16.752Z,5.50
2023-02-24T15:56:46.896Z,5.42
2023-02-24T15:59:18.266Z,5.33
2023-02-24T16:01:47.859Z,5.27
2023-02-24T16:04:17.585Z,5.17
2023-02-24T16:06:54.522Z,5.15
2023-02-24T16:09:33.723Z,5.21
2023-02-24T16:12:07.406Z,5.26
2023-02-24T16:14:37.233Z,5.33
2023-02-24T16:17:11.226Z,5.28
2023-02-24T16:19:40.669Z,5.23
2023-02-24T16:22:13.186Z,5.17
2023-02-24T16:24:44.104Z,5.25
2023-02-24T16:27:19.423Z,5.28
2023-02-24T16:29:49.904Z,5.18
2023-02-24T16:32:21.845Z,5.13
2023-02-24T16:34:51.469Z,5.01
2023-02-24T16:37:25.050Z,4.94
2023-02-24T16:39:54.992Z,4.72
2023-02-24T16:42:24.423Z,4.52
2023-02-24T16:44:53.774Z,4.48
2023-02-24T16:47:25.675Z,4.44
2023-02-24T16:49:58.103Z,4.46
2023-02-24T16:52:29.132Z,4.43
2023-02-24T16:54:59.465Z,4.49
2023-02-24T16:57:28.768Z,4.44
2023-02-24T16:59:58.206Z,4.39
2023-02-24T17:02:27.877Z,4.33
2023-02-24T17:04:57.969Z,4.35
2023-02-24T17:07:28.823Z,4.36
2023-02-24T17:09:58.459Z,4.27
2023-02-24T17:12:27.888Z,4.09
2023-02-24T17:14:59.109Z,4.09
2023-02-24T17:17:28.714Z,4.10
2023-02-24T17:19:58.198Z,4.08
2023-02-24T17:22:29.175Z,4.07
2023-02-24T17:24:58.742Z,4.08
2023-02-24T17:27:28.219Z,4.05
2023-02-24T17:29:57.767Z,3.96
2023-02-24T17:32:27.523Z,3.95
2023-02-24T17:34:57.121Z,4.01
2023-02-24T17:37:27.926Z,4.00
2023-02-24T17:39:57.541Z,3.97
2023-02-24T17:42:26.858Z,3.99
2023-02-24T17:44:56.558Z,4.05
2023-02-24T17:47:25.973Z,4.08
2023-02-24T17:49:55.368Z,4.06
2023-02-24T17:52:24.971Z,4.06
2023-02-24T17:54:55.823Z,3.98
2023-02-24T17:57:27.331Z,3.90
2023-02-24T17:59:56.837Z,3.80
2023-02-24T18:02:26.381Z,3.68
2023-02-24T18:04:55.970Z,3.65
2023-02-24T18:07:26.435Z,3.63
2023-02-24T18:09:59.656Z,3.63
2023-02-24T18:12:29.430Z,3.59
2023-02-24T18:15:07.827Z,3.55
2023-02-24T18:17:38.027Z,3.47
2023-02-24T18:20:09.981Z,3.38
2023-02-24T18:22:39.367Z,3.27
2023-02-24T18:25:11.114Z,3.31
2023-02-24T18:27:40.492Z,3.33
2023-02-24T18:30:13.314Z,3.31
2023-02-24T18:32:44.761Z,3.27
2023-02-24T18:35:16.147Z,3.19
2023-02-24T18:37:45.540Z,3.20
2023-02-24T18:40:17.098Z,3.19
2023-02-24T18:42:46.517Z,3.13
2023-02-24T18:45:16.018Z,3.07
2023-02-24T18:47:46.685Z,3.03
2023-02-24T18:51:36.554Z,2.97
2023-02-24T18:54:06.233Z,3.03
2023-02-24T18:56:37.488Z,3.12
2023-02-24T18:59:07.086Z,3.09
2023-02-24T19:01:39.497Z,3.02
2023-02-24T19:04:10.526Z,3.04
2023-02-24T19:06:43.312Z,3.06
2023-02-24T19:09:13.242Z,3.10
2023-02-24T19:11:44.319Z,3.12
2023-02-24T19:14:14.893Z,3.06
2023-02-24T19:16:44.419Z,2.98
2023-02-24T19:19:16.262Z,2.97
2023-02-24T19:21:48.657Z,2.97
2023-02-24T19:24:18.738Z,2.95
2023-02-24T19:26:48.198Z,2.91
2023-02-24T19:29:17.801Z,2.90
2023-02-24T19:31:47.578Z,2.85
2023-02-24T19:34:17.354Z,2.80
2023-02-24T19:36:48.470Z,2.76
2023-02-24T19:39:19.568Z,2.73
2023-02-24T19:41:49.879Z,2.73
2023-02-24T19:44:19.573Z,2.73
2023-02-24T19:46:49.063Z,2.75
2023-02-24T19:49:18.894Z,2.77
2023-02-24T19:51:49.875Z,2.72
2023-02-24T19:54:22.553Z,2.67
2023-02-24T19:56:52.663Z,2.64
2023-02-24T19:59:22.882Z,2.63
2023-02-24T20:01:54.453Z,2.45
2023-02-24T20:04:25.190Z,2.38
2023-02-24T20:06:56.228Z,2.41
2023-02-24T20:09:27.180Z,2.48
2023-02-24T20:11:58.348Z,2.45
2023-02-24T20:14:31.533Z,2.50
2023-02-24T20:17:02.039Z,2.50
2023-02-24T20:19:33.171Z,2.46
2023-02-24T20:22:04.694Z,2.44
2023-02-24T20:24:36.973Z,2.41
2023-02-24T20:27:06.734Z,2.39
2023-02-24T20:29:36.560Z,2.39
2023-02-24T20:32:06.273Z,2.37
2023-02-24T20:34:38.711Z,2.34
2023-02-24T20:37:09.596Z,2.34
2023-02-24T20:39:40.103Z,2.28
2023-02-24T20:42:09.613Z,2.25
2023-02-24T20:44:38.996Z,2.24
2023-02-24T20:47:08.456Z,2.19
2023-02-24T20:49:39.556Z,2.16
2023-02-24T20:52:10.463Z,2.14
2023-02-24T20:54:39.890Z,2.07
2023-02-24T20:57:09.439Z,1.96
2023-02-24T20:59:42.923Z,1.96
2023-02-24T21:02:14.252Z,1.94
2023-02-24T21:04:43.671Z,1.88
2023-02-24T21:07:14.960Z,1.83
2023-02-24T21:09:44.423Z,1.78
2023-02-24T21:12:13.920Z,1.82
2023-02-24T21:14:43.870Z,1.84
2023-02-24T21:17:14.162Z,1.84
2023-02-24T21:19:44.331Z,1.82
2023-02-24T21:22:15.266Z,1.79
2023-02-24T21:24:44.634Z,1.73
2023-02-24T21:27:14.218Z,1.63
2023-02-24T21:29:43.713Z,1.56
2023-02-24T21:32:14.659Z,1.54
2023-02-24T21:34:44.189Z,1.49
2023-02-24T21:37:14.919Z,1.43
2023-02-24T21:39:44.374Z,1.41
2023-02-24T21:42:13.826Z,1.39
2023-02-24T21:44:44.640Z,1.36
2023-02-24T21:47:14.132Z,1.24
2023-02-24T21:51:36.254Z,1.28
2023-02-24T21:54:08.821Z,1.24
2023-02-24T21:56:38.170Z,1.29
2023-02-24T21:59:11.374Z,1.31
2023-02-24T22:01:43.577Z,1.31
2023-02-24T22:04:15.669Z,1.17
2023-02-24T22:06:46.647Z,1.05
2023-02-24T22:09:19.852Z,1.04
2023-02-24T22:11:51.241Z,0.98
2023-02-24T22:14:21.524Z,0.92
2023-02-24T22:16:51.294Z,0.90
2023-02-24T22:19:20.812Z,0.90
2023-02-24T22:21:51.720Z,0.89
2023-02-24T22:24:21.250Z,0.95
2023-02-24T22:26:51.330Z,0.97
2023-02-24T22:29:20.637Z,0.86
2023-02-24T22:31:50.281Z,0.81
2023-02-24T22:34:19.829Z,0.83
2023-02-24T22:36:50.664Z,0.87
2023-02-24T22:39:20.092Z,0.80
2023-02-24T22:41:53.198Z,0.68
2023-02-24T22:44:22.590Z,0.67
2023-02-24T22:46:52.334Z,0.60
2023-02-24T22:49:21.622Z,0.55
2023-02-24T22:51:52.531Z,0.35
2023-02-24T22:54:22.241Z,0.38
2023-02-24T22:56:51.632Z,0.53
2023-02-24T22:59:21.084Z,0.62
2023-02-24T23:01:50.353Z,0.58
2023-02-24T23:04:20.157Z,0.50
2023-02-24T23:06:50.993Z,0.48
2023-02-24T23:09:20.614Z,0.51
2023-02-24T23:11:50.521Z,0.50
2023-02-24T23:14:20.745Z,0.42
2023-02-24T23:16:55.900Z,0.37
2023-02-24T23:19:25.855Z,0.40
2023-02-24T23:21:57.272Z,0.40
2023-02-24T23:24:26.728Z,0.40
2023-02-24T23:26:58.105Z,0.36
2023-02-24T23:29:28.138Z,0.36
2023-02-24T23:31:57.755Z,0.38
2023-02-24T23:34:27.480Z,0.36
2023-02-24T23:36:58.248Z,0.35
2023-02-24T23:39:27.676Z,0.38
2023-02-24T23:41:57.867Z,0.42
2023-02-24T23:44:27.737Z,0.39
2023-02-24T23:46:58.783Z,0.43
2023-02-24T23:49:42.420Z,0.47
2023-02-24T23:52:18.381Z,0.53
2023-02-24T23:54:52.842Z,0.46
2023-02-24T23:57:22.672Z,0.46
2023-02-24T23:59:52.237Z,0.43
